Roxboro, North Carolina
Current Conditions -  °F | °C
As of 8:35 AM on Friday 19 Dec 2014 (Local Time) from KTDF Reporting Station
Clear Clear  
Wind Chill: 34°   Ceiling: Unl
Heat Index: 37°   Visibility: 10mi
Dew Point: 23°   Wind: 5mph
Humidity: 56%   Direction: 340°NNW
Pressure: 30.18"   Gusts: NA
Location:  36.4°N, 78.98°W
Report Text: KTDF 191335Z AUTO 34004KT 10SM CLR 03/M05 A3018 RMK AO2
Loading
Personal Weather Stations






























Interactive Weather Map New forecast layout! Learn more

10-Day Weather Forecast

Advertisements
Track Severe Weather on mobile